SBI1152 UIII-UIAA
Flight info
| Callsign | SBI1152 |
|---|---|
| Flight time | 1h 3m |
| Altitude | 30000 |
| Route | KA5D KA A91 MAKID MAKID2L |
| Aircraft | A320/M-SDFGJ1IYRW/LB1 |
Departure
| Time | 2026-05-05 17:26 |
|---|---|
| Airport | Irkutsk International Airport (UIII) |
Arrival
| Time | 2026-05-05 18:29 |
|---|---|
| Airport | Chita-Kadala International Airport (UIAA) |
| Time | Latitude | Longitude | Altitude | Speed | Heading |
|---|---|---|---|---|---|
| 2026-05-05 17:00 | 52.27148 | 104.36632 | 1711 ft | 0 kts | 199° |
| 2026-05-05 17:02 | 52.27149 | 104.36632 | 1602 ft | 0 kts | 199° |
| 2026-05-05 17:20 | 52.27147 | 104.36631 | 1629 ft | 1 kts | 199° |
| 2026-05-05 17:20 | 52.27119 | 104.36615 | 1629 ft | 6 kts | 198° |
| 2026-05-05 17:20 | 52.27094 | 104.36664 | 1632 ft | 7 kts | 113° |
| 2026-05-05 17:20 | 52.27074 | 104.36742 | 1629 ft | 8 kts | 111° |
| 2026-05-05 17:21 | 52.27044 | 104.36889 | 1629 ft | 21 kts | 110° |
| 2026-05-05 17:21 | 52.26994 | 104.37108 | 1632 ft | 16 kts | 109° |
| 2026-05-05 17:21 | 52.26998 | 104.37275 | 1633 ft | 16 kts | 95° |
| 2026-05-05 17:22 | 52.26853 | 104.37841 | 1635 ft | 38 kts | 113° |
| 2026-05-05 17:22 | 52.26764 | 104.38173 | 1640 ft | 30 kts | 113° |
| 2026-05-05 17:22 | 52.26691 | 104.38451 | 1644 ft | 27 kts | 114° |
| 2026-05-05 17:22 | 52.26615 | 104.38734 | 1648 ft | 28 kts | 113° |
| 2026-05-05 17:23 | 52.26536 | 104.39035 | 1652 ft | 29 kts | 114° |
| 2026-05-05 17:23 | 52.26451 | 104.39351 | 1667 ft | 31 kts | 113° |
| 2026-05-05 17:23 | 52.26365 | 104.39681 | 1668 ft | 32 kts | 112° |
| 2026-05-05 17:23 | 52.26274 | 104.40017 | 1674 ft | 33 kts | 114° |
| 2026-05-05 17:24 | 52.26184 | 104.40358 | 1671 ft | 33 kts | 113° |
| 2026-05-05 17:24 | 52.26094 | 104.40699 | 1679 ft | 32 kts | 113° |
| 2026-05-05 17:24 | 52.26007 | 104.41022 | 1678 ft | 17 kts | 114° |
| 2026-05-05 17:24 | 52.26026 | 104.41203 | 1680 ft | 17 kts | 36° |
| 2026-05-05 17:25 | 52.26135 | 104.41260 | 1686 ft | 17 kts | 21° |
| 2026-05-05 17:25 | 52.26202 | 104.41295 | 1688 ft | 14 kts | 355° |
| 2026-05-05 17:25 | 52.26251 | 104.41204 | 1681 ft | 0 kts | 292° |
| 2026-05-05 17:25 | 52.26254 | 104.41192 | 1682 ft | 4 kts | 292° |
| 2026-05-05 17:26 | 52.26326 | 104.40921 | 1681 ft | 64 kts | 294° |
| 2026-05-05 17:26 | 52.26605 | 104.39879 | 1662 ft | 133 kts | 293° |
| 2026-05-05 17:26 | 52.27032 | 104.38238 | 1822 ft | 169 kts | 295° |
| 2026-05-05 17:26 | 52.27524 | 104.36492 | 2608 ft | 170 kts | 297° |
| 2026-05-05 17:27 | 52.28036 | 104.34689 | 3150 ft | 186 kts | 296° |
| 2026-05-05 17:27 | 52.28600 | 104.32640 | 3445 ft | 209 kts | 296° |
| 2026-05-05 17:27 | 52.29223 | 104.30329 | 3816 ft | 233 kts | 296° |
| 2026-05-05 17:27 | 52.30194 | 104.28177 | 4530 ft | 241 kts | 326° |
| 2026-05-05 17:28 | 52.31798 | 104.27416 | 5446 ft | 246 kts | 359° |
| 2026-05-05 17:28 | 52.33499 | 104.27850 | 6388 ft | 251 kts | 12° |
| 2026-05-05 17:28 | 52.35185 | 104.28702 | 7297 ft | 255 kts | 16° |
| 2026-05-05 17:28 | 52.36882 | 104.29655 | 8199 ft | 258 kts | 17° |
| 2026-05-05 17:29 | 52.38574 | 104.30572 | 9067 ft | 262 kts | 16° |
| 2026-05-05 17:29 | 52.40358 | 104.31471 | 9978 ft | 265 kts | 15° |
| 2026-05-05 17:29 | 52.42142 | 104.32311 | 10798 ft | 268 kts | 15° |
| 2026-05-05 17:29 | 52.43833 | 104.33674 | 11545 ft | 277 kts | 38° |
| 2026-05-05 17:30 | 52.45009 | 104.36214 | 12360 ft | 285 kts | 65° |
| 2026-05-05 17:30 | 52.45364 | 104.39406 | 13136 ft | 294 kts | 92° |
| 2026-05-05 17:30 | 52.45007 | 104.42733 | 13942 ft | 298 kts | 99° |
| 2026-05-05 17:30 | 52.44571 | 104.46082 | 14666 ft | 302 kts | 100° |
| 2026-05-05 17:31 | 52.44181 | 104.49481 | 15362 ft | 304 kts | 92° |
| 2026-05-05 17:31 | 52.44300 | 104.52919 | 16045 ft | 303 kts | 74° |
| 2026-05-05 17:31 | 52.45029 | 104.56152 | 16618 ft | 307 kts | 58° |
| 2026-05-05 17:31 | 52.46363 | 104.58999 | 16769 ft | 323 kts | 40° |
| 2026-05-05 17:32 | 52.48182 | 104.61316 | 16144 ft | 338 kts | 36° |
| 2026-05-05 17:32 | 52.50092 | 104.63647 | 17309 ft | 349 kts | 34° |
| 2026-05-05 17:32 | 52.52063 | 104.66073 | 18061 ft | 351 kts | 34° |
| 2026-05-05 17:32 | 52.53995 | 104.68469 | 18731 ft | 353 kts | 34° |
| 2026-05-05 17:33 | 52.55983 | 104.70949 | 19332 ft | 355 kts | 35° |
| 2026-05-05 17:33 | 52.57955 | 104.73413 | 19921 ft | 357 kts | 36° |
| 2026-05-05 17:33 | 52.59939 | 104.75888 | 20530 ft | 359 kts | 37° |
| 2026-05-05 17:33 | 52.61939 | 104.78384 | 21105 ft | 361 kts | 37° |
| 2026-05-05 17:34 | 52.63944 | 104.80885 | 21674 ft | 363 kts | 38° |
| 2026-05-05 17:34 | 52.65966 | 104.83408 | 22234 ft | 366 kts | 38° |
| 2026-05-05 17:34 | 52.68001 | 104.85952 | 22789 ft | 368 kts | 38° |
| 2026-05-05 17:34 | 52.70049 | 104.88510 | 23325 ft | 371 kts | 39° |
| 2026-05-05 17:35 | 52.72108 | 104.91086 | 23859 ft | 373 kts | 39° |
| 2026-05-05 17:35 | 52.74184 | 104.93691 | 24302 ft | 375 kts | 39° |
| 2026-05-05 17:35 | 52.76266 | 104.96314 | 24733 ft | 378 kts | 39° |
| 2026-05-05 17:35 | 52.78366 | 104.98960 | 25159 ft | 380 kts | 39° |
| 2026-05-05 17:36 | 52.80478 | 105.01618 | 25568 ft | 383 kts | 39° |
| 2026-05-05 17:36 | 52.82600 | 105.04289 | 26020 ft | 384 kts | 39° |
| 2026-05-05 17:36 | 52.84731 | 105.06974 | 26433 ft | 386 kts | 39° |
| 2026-05-05 17:36 | 52.86871 | 105.09684 | 26841 ft | 388 kts | 39° |
| 2026-05-05 17:37 | 52.89016 | 105.12409 | 27231 ft | 391 kts | 39° |
| 2026-05-05 17:37 | 52.90450 | 105.14243 | 27497 ft | 392 kts | 40° |
| 2026-05-05 17:37 | 52.92943 | 105.18637 | 28007 ft | 394 kts | 56° |
| 2026-05-05 17:37 | 52.94257 | 105.22623 | 28372 ft | 397 kts | 67° |
| 2026-05-05 17:38 | 52.95030 | 105.27054 | 28733 ft | 403 kts | 78° |
| 2026-05-05 17:38 | 52.95199 | 105.31712 | 29076 ft | 409 kts | 91° |
| 2026-05-05 17:38 | 52.94858 | 105.36433 | 29429 ft | 414 kts | 95° |
| 2026-05-05 17:38 | 52.94463 | 105.41186 | 29751 ft | 417 kts | 95° |
| 2026-05-05 17:39 | 52.94060 | 105.45972 | 30062 ft | 420 kts | 95° |
| 2026-05-05 17:39 | 52.93652 | 105.50784 | 30223 ft | 420 kts | 95° |
| 2026-05-05 17:39 | 52.93243 | 105.55574 | 30245 ft | 424 kts | 95° |
| 2026-05-05 17:40 | 52.92409 | 105.65445 | 30244 ft | 442 kts | 95° |
| 2026-05-05 17:40 | 52.91540 | 105.75652 | 30242 ft | 450 kts | 95° |
| 2026-05-05 17:41 | 52.90647 | 105.85925 | 30250 ft | 451 kts | 95° |
| 2026-05-05 17:41 | 52.89739 | 105.96213 | 30250 ft | 452 kts | 95° |
| 2026-05-05 17:42 | 52.88822 | 106.06521 | 30246 ft | 452 kts | 95° |
| 2026-05-05 17:42 | 52.87902 | 106.16819 | 30232 ft | 452 kts | 95° |
| 2026-05-05 17:43 | 52.86971 | 106.27113 | 30228 ft | 452 kts | 96° |
| 2026-05-05 17:43 | 52.86029 | 106.37385 | 30246 ft | 452 kts | 96° |
| 2026-05-05 17:44 | 52.85077 | 106.47674 | 30222 ft | 452 kts | 96° |
| 2026-05-05 17:44 | 52.84123 | 106.57953 | 30201 ft | 453 kts | 96° |
| 2026-05-05 17:45 | 52.83163 | 106.68245 | 30198 ft | 453 kts | 96° |
| 2026-05-05 17:45 | 52.82349 | 106.76869 | 30192 ft | 453 kts | 96° |
| 2026-05-05 17:46 | 52.81359 | 106.87152 | 30220 ft | 453 kts | 96° |
| 2026-05-05 17:46 | 52.80359 | 106.97422 | 30201 ft | 453 kts | 96° |
| 2026-05-05 17:47 | 52.79354 | 107.07708 | 30199 ft | 453 kts | 97° |
| 2026-05-05 17:47 | 52.78344 | 107.17979 | 30201 ft | 453 kts | 96° |
| 2026-05-05 17:48 | 52.77334 | 107.28243 | 30177 ft | 453 kts | 97° |
| 2026-05-05 17:48 | 52.76310 | 107.38522 | 30216 ft | 453 kts | 97° |
| 2026-05-05 17:49 | 52.75274 | 107.48782 | 30204 ft | 453 kts | 97° |
| 2026-05-05 17:49 | 52.74223 | 107.59027 | 30188 ft | 452 kts | 97° |
| 2026-05-05 17:50 | 52.73164 | 107.69259 | 30176 ft | 452 kts | 97° |
| 2026-05-05 17:50 | 52.72096 | 107.79489 | 30170 ft | 452 kts | 97° |
| 2026-05-05 17:51 | 52.71023 | 107.89724 | 30186 ft | 453 kts | 97° |
| 2026-05-05 17:51 | 52.69938 | 107.99975 | 30174 ft | 453 kts | 97° |
| 2026-05-05 17:52 | 52.68845 | 108.10202 | 30168 ft | 453 kts | 97° |
| 2026-05-05 17:52 | 52.67748 | 108.20461 | 30173 ft | 454 kts | 97° |
| 2026-05-05 17:53 | 52.66661 | 108.30700 | 30172 ft | 454 kts | 97° |
| 2026-05-05 17:53 | 52.65604 | 108.41031 | 30179 ft | 454 kts | 96° |
| 2026-05-05 17:54 | 52.64582 | 108.51232 | 30171 ft | 455 kts | 97° |
| 2026-05-05 17:54 | 52.63528 | 108.61518 | 30170 ft | 456 kts | 97° |
| 2026-05-05 17:55 | 52.62445 | 108.71826 | 30170 ft | 456 kts | 97° |
| 2026-05-05 17:55 | 52.61354 | 108.82118 | 30163 ft | 456 kts | 97° |
| 2026-05-05 17:56 | 52.60259 | 108.92421 | 30165 ft | 457 kts | 97° |
| 2026-05-05 17:56 | 52.59155 | 109.02743 | 30156 ft | 458 kts | 97° |
| 2026-05-05 17:57 | 52.58039 | 109.13069 | 30143 ft | 458 kts | 97° |
| 2026-05-05 17:57 | 52.56904 | 109.23400 | 30146 ft | 459 kts | 97° |
| 2026-05-05 17:58 | 52.55764 | 109.33728 | 30160 ft | 459 kts | 98° |
| 2026-05-05 17:58 | 52.54625 | 109.44057 | 30144 ft | 460 kts | 98° |
| 2026-05-05 17:59 | 52.53470 | 109.54392 | 30135 ft | 461 kts | 98° |
| 2026-05-05 17:59 | 52.52305 | 109.64747 | 30132 ft | 461 kts | 98° |
| 2026-05-05 18:00 | 52.51126 | 109.75097 | 30129 ft | 461 kts | 98° |
| 2026-05-05 18:00 | 52.49930 | 109.85449 | 30143 ft | 462 kts | 98° |
| 2026-05-05 18:01 | 52.48671 | 109.95787 | 30124 ft | 462 kts | 99° |
| 2026-05-05 18:01 | 52.47265 | 110.06085 | 30124 ft | 463 kts | 100° |
| 2026-05-05 18:02 | 52.45833 | 110.16384 | 30129 ft | 463 kts | 100° |
| 2026-05-05 18:02 | 52.44409 | 110.26701 | 30132 ft | 463 kts | 100° |
| 2026-05-05 18:03 | 52.42991 | 110.37024 | 30108 ft | 465 kts | 100° |
| 2026-05-05 18:03 | 52.41570 | 110.47386 | 30105 ft | 467 kts | 100° |
| 2026-05-05 18:04 | 52.40130 | 110.57795 | 30098 ft | 469 kts | 101° |
| 2026-05-05 18:04 | 52.38666 | 110.68199 | 30096 ft | 469 kts | 101° |
| 2026-05-05 18:05 | 52.37187 | 110.78620 | 30107 ft | 470 kts | 101° |
| 2026-05-05 18:05 | 52.35835 | 110.89090 | 30091 ft | 471 kts | 99° |
| 2026-05-05 18:06 | 52.34556 | 110.99633 | 30089 ft | 472 kts | 99° |
| 2026-05-05 18:06 | 52.33260 | 111.10146 | 30082 ft | 472 kts | 99° |
| 2026-05-05 18:07 | 52.31908 | 111.20651 | 30090 ft | 472 kts | 100° |
| 2026-05-05 18:07 | 52.30525 | 111.31153 | 30087 ft | 472 kts | 100° |
| 2026-05-05 18:08 | 52.29151 | 111.41629 | 30103 ft | 471 kts | 100° |
| 2026-05-05 18:08 | 52.27780 | 111.52034 | 30081 ft | 470 kts | 100° |
| 2026-05-05 18:09 | 52.26403 | 111.62459 | 30075 ft | 470 kts | 100° |
| 2026-05-05 18:09 | 52.25022 | 111.72970 | 28471 ft | 469 kts | 102° |
| 2026-05-05 18:09 | 52.24336 | 111.78177 | 30323 ft | 468 kts | 101° |
| 2026-05-05 18:10 | 52.23646 | 111.83401 | 30124 ft | 472 kts | 100° |
| 2026-05-05 18:10 | 52.22257 | 111.93848 | 29632 ft | 472 kts | 101° |
| 2026-05-05 18:10 | 52.21551 | 111.99110 | 29233 ft | 473 kts | 101° |
| 2026-05-05 18:11 | 52.20835 | 112.04407 | 28508 ft | 472 kts | 101° |
| 2026-05-05 18:11 | 52.20122 | 112.09630 | 27836 ft | 472 kts | 101° |
| 2026-05-05 18:11 | 52.19408 | 112.14850 | 27174 ft | 471 kts | 101° |
| 2026-05-05 18:11 | 52.18691 | 112.20086 | 25305 ft | 477 kts | 103° |
| 2026-05-05 18:12 | 52.17970 | 112.25326 | 26013 ft | 483 kts | 101° |
| 2026-05-05 18:12 | 52.17226 | 112.30734 | 25048 ft | 481 kts | 101° |
| 2026-05-05 18:12 | 52.16500 | 112.36023 | 24395 ft | 475 kts | 101° |
| 2026-05-05 18:12 | 52.15780 | 112.41237 | 23737 ft | 469 kts | 101° |
| 2026-05-05 18:13 | 52.15350 | 112.44658 | 23372 ft | 461 kts | 97° |
| 2026-05-05 18:13 | 52.15128 | 112.49749 | 23198 ft | 440 kts | 91° |
| 2026-05-05 18:13 | 52.15013 | 112.54639 | 22945 ft | 425 kts | 91° |
| 2026-05-05 18:13 | 52.14891 | 112.59408 | 22369 ft | 418 kts | 91° |
| 2026-05-05 18:14 | 52.14768 | 112.64112 | 21677 ft | 414 kts | 91° |
| 2026-05-05 18:14 | 52.14644 | 112.68785 | 20999 ft | 412 kts | 91° |
| 2026-05-05 18:14 | 52.14520 | 112.73425 | 20339 ft | 409 kts | 91° |
| 2026-05-05 18:14 | 52.14398 | 112.78044 | 19653 ft | 408 kts | 91° |
| 2026-05-05 18:15 | 52.14275 | 112.82654 | 19062 ft | 405 kts | 91° |
| 2026-05-05 18:15 | 52.14150 | 112.87208 | 18552 ft | 400 kts | 91° |
| 2026-05-05 18:15 | 52.14024 | 112.91705 | 17989 ft | 397 kts | 91° |
| 2026-05-05 18:15 | 52.13895 | 112.96180 | 17451 ft | 393 kts | 91° |
| 2026-05-05 18:16 | 52.13768 | 113.00582 | 16924 ft | 389 kts | 91° |
| 2026-05-05 18:16 | 52.13643 | 113.04960 | 16382 ft | 385 kts | 91° |
| 2026-05-05 18:16 | 52.13516 | 113.09293 | 15862 ft | 382 kts | 91° |
| 2026-05-05 18:16 | 52.13390 | 113.13588 | 15341 ft | 379 kts | 91° |
| 2026-05-05 18:17 | 52.13262 | 113.17877 | 14839 ft | 376 kts | 91° |
| 2026-05-05 18:17 | 52.13130 | 113.22117 | 14325 ft | 374 kts | 91° |
| 2026-05-05 18:17 | 52.12998 | 113.26320 | 13807 ft | 371 kts | 91° |
| 2026-05-05 18:17 | 52.12734 | 113.30475 | 13264 ft | 369 kts | 98° |
| 2026-05-05 18:18 | 52.12273 | 113.34573 | 12744 ft | 365 kts | 98° |
| 2026-05-05 18:18 | 52.11815 | 113.38609 | 12231 ft | 362 kts | 98° |
| 2026-05-05 18:18 | 52.11357 | 113.42631 | 11709 ft | 358 kts | 98° |
| 2026-05-05 18:18 | 52.10905 | 113.46598 | 11192 ft | 354 kts | 98° |
| 2026-05-05 18:19 | 52.10461 | 113.50494 | 10828 ft | 346 kts | 98° |
| 2026-05-05 18:19 | 52.10024 | 113.54309 | 10534 ft | 337 kts | 98° |
| 2026-05-05 18:19 | 52.09599 | 113.57999 | 10289 ft | 327 kts | 98° |
| 2026-05-05 18:19 | 52.09184 | 113.61599 | 9873 ft | 324 kts | 98° |
| 2026-05-05 18:20 | 52.08772 | 113.65167 | 9110 ft | 320 kts | 101° |
| 2026-05-05 18:20 | 52.08360 | 113.68720 | 8960 ft | 317 kts | 98° |
| 2026-05-05 18:20 | 52.07950 | 113.72228 | 8517 ft | 313 kts | 98° |
| 2026-05-05 18:20 | 52.07544 | 113.75692 | 8062 ft | 309 kts | 98° |
| 2026-05-05 18:21 | 52.07135 | 113.79116 | 7616 ft | 307 kts | 101° |
| 2026-05-05 18:21 | 52.06204 | 113.82198 | 7241 ft | 306 kts | 131° |
| 2026-05-05 18:21 | 52.04455 | 113.83990 | 7107 ft | 295 kts | 165° |
| 2026-05-05 18:21 | 52.02469 | 113.84211 | 6969 ft | 282 kts | 188° |
| 2026-05-05 18:22 | 52.00808 | 113.83482 | 6860 ft | 269 kts | 207° |
| 2026-05-05 18:22 | 51.99281 | 113.81874 | 6724 ft | 255 kts | 226° |
| 2026-05-05 18:22 | 51.98193 | 113.79719 | 6598 ft | 241 kts | 244° |
| 2026-05-05 18:22 | 51.97568 | 113.77275 | 6471 ft | 229 kts | 261° |
| 2026-05-05 18:23 | 51.97390 | 113.74788 | 6346 ft | 218 kts | 276° |
| 2026-05-05 18:23 | 51.97589 | 113.72413 | 6219 ft | 209 kts | 285° |
| 2026-05-05 18:23 | 51.97862 | 113.70165 | 6219 ft | 198 kts | 285° |
| 2026-05-05 18:23 | 51.98121 | 113.68045 | 6218 ft | 185 kts | 285° |
| 2026-05-05 18:24 | 51.98353 | 113.66120 | 6231 ft | 164 kts | 286° |
| 2026-05-05 18:24 | 51.98561 | 113.64403 | 6212 ft | 150 kts | 287° |
| 2026-05-05 18:24 | 51.98759 | 113.62772 | 6228 ft | 144 kts | 287° |
| 2026-05-05 18:24 | 51.98953 | 113.61182 | 6224 ft | 143 kts | 287° |
| 2026-05-05 18:25 | 51.99145 | 113.59598 | 6128 ft | 143 kts | 287° |
| 2026-05-05 18:25 | 51.99272 | 113.58551 | 6022 ft | 142 kts | 287° |
| 2026-05-05 18:25 | 51.99537 | 113.56371 | 5735 ft | 154 kts | 287° |
| 2026-05-05 18:25 | 51.99744 | 113.54647 | 5358 ft | 160 kts | 280° |
| 2026-05-05 18:26 | 51.99958 | 113.52865 | 5256 ft | 162 kts | 286° |
| 2026-05-05 18:26 | 52.00173 | 113.51073 | 4994 ft | 161 kts | 286° |
| 2026-05-05 18:26 | 52.00389 | 113.49279 | 4738 ft | 162 kts | 286° |
| 2026-05-05 18:26 | 52.00606 | 113.47465 | 4456 ft | 161 kts | 286° |
| 2026-05-05 18:27 | 52.00814 | 113.45721 | 4223 ft | 153 kts | 285° |
| 2026-05-05 18:27 | 52.01007 | 113.44096 | 3975 ft | 144 kts | 285° |
| 2026-05-05 18:27 | 52.01190 | 113.42534 | 3660 ft | 138 kts | 284° |
| 2026-05-05 18:27 | 52.01368 | 113.41020 | 3409 ft | 136 kts | 284° |
| 2026-05-05 18:28 | 52.01745 | 113.38035 | 2941 ft | 134 kts | 281° |
| 2026-05-05 18:28 | 52.01916 | 113.36553 | 2766 ft | 133 kts | 282° |
| 2026-05-05 18:28 | 52.02091 | 113.35087 | 2605 ft | 132 kts | 282° |
| 2026-05-05 18:29 | 52.02263 | 113.33626 | 2453 ft | 132 kts | 281° |
| 2026-05-05 18:29 | 52.02425 | 113.32184 | 2290 ft | 128 kts | 283° |
| 2026-05-05 18:29 | 52.02569 | 113.30955 | 2279 ft | 87 kts | 281° |
| 2026-05-05 18:29 | 52.02652 | 113.30269 | 2278 ft | 37 kts | 281° |
| 2026-05-05 18:30 | 52.02671 | 113.30106 | 2280 ft | 5 kts | 279° |